Time;durP1;ratioP1;P1;durP2;ratioP2;P2;SDS_P1;SDS_P2;PMS_P1;PMS_P2;Temp;Humidity;BMP_temperature;BMP_pressure;BME280_temperature;BME280_humidity;BME280_pressure;Samples;Min_cycle;Max_cycle;Signal;HPM_P1;HPM_P2
2021/11/13 00:01:38;;;;;;;0.50;0.50;;;2.60;99.90;;;;;;5076730;28;20476;-95
2021/11/13 00:04:05;;;;;;;0.63;0.63;;;2.60;99.90;;;;;;5076528;28;20472;-95
2021/11/13 00:06:32;;;;;;;0.30;0.30;;;2.70;99.90;;;;;;5076790;28;20452;-95
2021/11/13 00:09:00;;;;;;;1.07;0.50;;;2.80;99.90;;;;;;5076798;28;20928;-95
2021/11/13 00:11:27;;;;;;;0.30;0.30;;;2.90;99.90;;;;;;5076912;28;20536;-95
2021/11/13 00:13:55;;;;;;;0.40;0.40;;;3.10;99.90;;;;;;5077280;28;20455;-95
2021/11/13 00:16:22;;;;;;;0.90;0.90;;;3.20;99.90;;;;;;5078034;28;20926;-96
2021/11/13 00:18:49;;;;;;;0.70;0.70;;;3.30;99.90;;;;;;5077022;28;20931;-95
2021/11/13 00:21:15;;;;;;;0.60;0.50;;;3.40;99.90;;;;;;5076617;28;20954;-96
2021/11/13 00:23:42;;;;;;;0.60;0.40;;;3.40;99.90;;;;;;5075943;28;20477;-95
2021/11/13 00:26:11;;;;;;;0.73;0.73;;;3.30;99.90;;;;;;5076436;28;20456;-95
2021/11/13 00:28:37;;;;;;;1.90;1.00;;;3.30;99.90;;;;;;5076024;28;20445;-84
2021/11/13 00:31:04;;;;;;;2.00;1.13;;;3.30;99.90;;;;;;5074848;28;20959;-83
2021/11/13 00:33:31;;;;;;;0.60;0.60;;;3.30;99.90;;;;;;5075569;28;20464;-84
2021/11/13 00:35:58;;;;;;;1.27;1.27;;;3.30;99.90;;;;;;5074705;28;20477;-84
2021/11/13 00:38:25;;;;;;;0.33;0.33;;;3.20;99.90;;;;;;5074917;28;20460;-83
2021/11/13 00:40:52;;;;;;;0.30;0.30;;;3.20;99.90;;;;;;5074942;28;20445;-84
2021/11/13 00:43:21;;;;;;;0.73;0.73;;;3.20;99.90;;;;;;5074755;28;20468;-83
2021/11/13 00:45:48;;;;;;;0.73;0.73;;;3.20;99.90;;;;;;5075358;28;20449;-83
2021/11/13 00:48:15;;;;;;;0.40;0.40;;;3.10;99.90;;;;;;5074502;28;20799;-83
2021/11/13 00:50:41;;;;;;;0.50;0.50;;;3.10;99.90;;;;;;5074377;28;20948;-83
2021/11/13 00:53:08;;;;;;;0.30;0.20;;;3.10;99.90;;;;;;5074587;28;20477;-84
2021/11/13 00:55:35;;;;;;;0.40;0.40;;;3.10;99.90;;;;;;5074542;28;20484;-84
2021/11/13 00:58:02;;;;;;;0.30;0.30;;;3.10;99.90;;;;;;5074552;28;20453;-84
2021/11/13 01:00:30;;;;;;;5.30;1.00;;;3.10;99.90;;;;;;5074194;28;20824;-83
2021/11/13 01:02:57;;;;;;;1.13;1.13;;;3.00;99.90;;;;;;5074066;28;20967;-83
2021/11/13 01:05:24;;;;;;;1.60;1.50;;;3.10;99.90;;;;;;5074186;28;20445;-84
2021/11/13 01:07:50;;;;;;;1.23;1.13;;;3.10;99.90;;;;;;5074318;28;20456;-83
2021/11/13 01:10:20;;;;;;;1.33;0.63;;;3.00;99.90;;;;;;5074066;28;20810;-83
2021/11/13 01:12:48;;;;;;;1.93;1.73;;;3.00;99.90;;;;;;5074168;28;20864;-83
2021/11/13 01:15:16;;;;;;;0.40;0.40;;;3.00;99.90;;;;;;5073818;28;20854;-83
2021/11/13 01:17:44;;;;;;;0.60;0.60;;;3.00;99.90;;;;;;5074145;28;20805;-83
2021/11/13 01:20:13;;;;;;;0.40;0.40;;;3.00;99.90;;;;;;5074091;28;20460;-84
2021/11/13 01:22:41;;;;;;;0.30;0.30;;;2.90;99.90;;;;;;5073817;28;20444;-85
2021/11/13 01:25:09;;;;;;;0.87;0.53;;;2.90;99.90;;;;;;5074005;28;20464;-84
2021/11/13 01:27:36;;;;;;;0.30;0.30;;;2.90;99.90;;;;;;5076651;28;20453;-83
2021/11/13 01:30:03;;;;;;;0.40;0.40;;;2.90;99.90;;;;;;5074772;28;20445;-83
2021/11/13 01:32:30;;;;;;;0.50;0.50;;;2.90;99.90;;;;;;5073481;28;20461;-83
2021/11/13 01:34:58;;;;;;;0.87;0.80;;;2.90;99.90;;;;;;5073679;28;20489;-83
2021/11/13 01:37:25;;;;;;;0.83;0.60;;;2.90;99.90;;;;;;5073797;28;20827;-84
2021/11/13 01:39:52;;;;;;;0.37;0.33;;;2.80;99.90;;;;;;5073462;28;20445;-83
2021/11/13 01:42:25;;;;;;;0.40;0.40;;;2.80;99.90;;;;;;5073685;28;20456;-83
2021/11/13 01:44:52;;;;;;;0.30;0.30;;;2.80;99.90;;;;;;5073625;28;20564;-84
2021/11/13 01:47:19;;;;;;;0.43;0.40;;;2.80;99.90;;;;;;5073649;28;20453;-83
2021/11/13 01:49:45;;;;;;;0.50;0.50;;;2.80;99.90;;;;;;5073600;28;20448;-84
2021/11/13 01:52:16;;;;;;;0.50;0.50;;;2.70;99.90;;;;;;5073541;28;20524;-84
2021/11/13 01:54:46;;;;;;;1.07;1.07;;;2.70;99.90;;;;;;5073419;28;20495;-84
2021/11/13 01:57:20;;;;;;;0.90;0.50;;;2.70;99.90;;;;;;5073585;28;20425;-84
2021/11/13 01:59:48;;;;;;;1.63;0.77;;;2.60;99.90;;;;;;5073502;28;20437;-84
2021/11/13 02:02:16;;;;;;;0.50;0.50;;;2.60;99.90;;;;;;5073484;28;20456;-84
2021/11/13 02:04:42;;;;;;;0.30;0.30;;;2.50;99.90;;;;;;5073440;28;20468;-84
2021/11/13 02:07:09;;;;;;;0.33;0.33;;;2.50;99.90;;;;;;5073405;28;20447;-84
2021/11/13 02:09:37;;;;;;;0.40;0.40;;;2.50;99.90;;;;;;5073075;28;20452;-84
2021/11/13 02:12:05;;;;;;;1.13;1.03;;;2.50;99.90;;;;;;5073356;28;20445;-84
2021/11/13 02:14:32;;;;;;;0.40;0.40;;;2.50;99.90;;;;;;5073021;28;20453;-84
2021/11/13 02:16:59;;;;;;;0.33;0.33;;;2.50;99.90;;;;;;5073301;28;20436;-83
2021/11/13 02:19:26;;;;;;;0.50;0.40;;;2.50;99.90;;;;;;5073141;28;20804;-84
2021/11/13 02:21:54;;;;;;;0.63;0.60;;;2.40;99.90;;;;;;5072994;28;20452;-83
2021/11/13 02:24:21;;;;;;;0.43;0.43;;;2.40;99.90;;;;;;5072704;28;20483;-84
2021/11/13 02:26:47;;;;;;;0.73;0.70;;;2.40;99.90;;;;;;5073016;28;20437;-83
2021/11/13 02:29:14;;;;;;;0.70;0.70;;;2.40;99.90;;;;;;5073238;28;20449;-84
2021/11/13 02:31:43;;;;;;;1.60;1.33;;;2.40;99.90;;;;;;5073567;28;20781;-83
2021/11/13 02:34:12;;;;;;;1.60;1.17;;;2.30;99.90;;;;;;5072730;28;20469;-84
2021/11/13 02:36:40;;;;;;;1.57;0.50;;;2.30;99.90;;;;;;5073022;28;20492;-84
2021/11/13 02:39:10;;;;;;;0.53;0.53;;;2.30;99.90;;;;;;5073166;28;20464;-84
2021/11/13 02:41:38;;;;;;;0.50;0.50;;;2.30;99.90;;;;;;5073090;28;20429;-84
2021/11/13 02:44:06;;;;;;;0.70;0.70;;;2.20;99.90;;;;;;5072985;28;20460;-83
2021/11/13 02:46:33;;;;;;;0.80;0.80;;;2.20;99.90;;;;;;5076131;28;20843;-84
2021/11/13 02:49:02;;;;;;;0.30;0.30;;;2.20;99.90;;;;;;5077081;28;20800;-84
2021/11/13 02:51:29;;;;;;;0.50;0.50;;;2.20;99.90;;;;;;5076916;28;20440;-84
2021/11/13 02:53:55;;;;;;;0.40;0.40;;;2.20;99.90;;;;;;5076877;28;20461;-84
2021/11/13 02:56:24;;;;;;;1.40;0.83;;;2.20;99.90;;;;;;5076499;28;20479;-84
2021/11/13 02:58:51;;;;;;;0.40;0.40;;;2.20;99.90;;;;;;5076856;28;20444;-84
2021/11/13 03:01:21;;;;;;;1.30;0.93;;;2.20;99.90;;;;;;5076860;28;20445;-84
2021/11/13 03:03:48;;;;;;;1.17;0.50;;;2.20;99.90;;;;;;5076437;28;21002;-84
2021/11/13 03:06:16;;;;;;;0.37;0.37;;;2.10;99.90;;;;;;5076680;28;20444;-84
2021/11/13 03:08:44;;;;;;;0.50;0.50;;;2.10;99.90;;;;;;5076547;28;20441;-84
2021/11/13 03:11:13;;;;;;;0.60;0.60;;;2.10;99.90;;;;;;5076459;28;20449;-84
2021/11/13 03:13:44;;;;;;;0.40;0.40;;;2.10;99.90;;;;;;5076424;28;20469;-84
2021/11/13 03:16:12;;;;;;;0.30;0.30;;;2.10;99.90;;;;;;5076159;28;21014;-84
2021/11/13 03:18:39;;;;;;;0.63;0.63;;;2.10;99.90;;;;;;5076470;28;20452;-84
2021/11/13 03:21:07;;;;;;;0.40;0.40;;;2.10;99.90;;;;;;5076364;28;20807;-84
2021/11/13 03:23:35;;;;;;;1.40;1.33;;;2.00;99.90;;;;;;5075811;28;20484;-84
2021/11/13 03:26:06;;;;;;;0.50;0.50;;;2.00;99.90;;;;;;5076280;28;20419;-83
2021/11/13 03:28:37;;;;;;;0.80;0.80;;;2.00;99.90;;;;;;5076291;28;20429;-83
2021/11/13 03:31:07;;;;;;;0.60;0.60;;;1.90;99.90;;;;;;5075942;28;20924;-83
2021/11/13 03:33:36;;;;;;;0.30;0.30;;;1.90;99.90;;;;;;5076364;28;20477;-84
2021/11/13 03:36:04;;;;;;;0.30;0.30;;;1.80;99.90;;;;;;5075859;28;20479;-84
2021/11/13 03:38:31;;;;;;;0.33;0.33;;;1.70;99.90;;;;;;5076076;28;20452;-84
2021/11/13 03:40:58;;;;;;;1.07;1.07;;;1.70;99.90;;;;;;5076031;28;20452;-84
2021/11/13 03:43:25;;;;;;;0.60;0.60;;;1.70;99.90;;;;;;5075946;28;20465;-84
2021/11/13 03:45:53;;;;;;;0.60;0.60;;;1.70;99.90;;;;;;5075944;28;20445;-84
2021/11/13 03:48:21;;;;;;;1.97;1.20;;;1.80;99.90;;;;;;5075643;28;20455;-83
2021/11/13 03:50:49;;;;;;;0.90;0.90;;;1.80;99.90;;;;;;5075824;28;20453;-84
2021/11/13 03:53:16;;;;;;;0.30;0.30;;;1.90;99.90;;;;;;5075779;28;20473;-84
2021/11/13 03:55:43;;;;;;;0.97;0.97;;;2.00;99.90;;;;;;5075383;28;20469;-84
2021/11/13 03:58:10;;;;;;;0.60;0.40;;;2.00;99.90;;;;;;5075716;28;20449;-84
2021/11/13 04:00:37;;;;;;;0.60;0.60;;;2.10;99.90;;;;;;5075391;28;20451;-84
2021/11/13 04:03:04;;;;;;;0.50;0.50;;;2.10;99.90;;;;;;5075579;28;20469;-84
2021/11/13 04:05:33;;;;;;;0.57;0.57;;;2.20;99.90;;;;;;5075632;28;20802;-84
2021/11/13 04:07:59;;;;;;;0.40;0.40;;;2.30;99.90;;;;;;5075230;28;20979;-84
2021/11/13 04:10:26;;;;;;;1.50;1.50;;;2.40;99.90;;;;;;5075270;28;20970;-84
2021/11/13 04:12:53;;;;;;;0.30;0.30;;;2.40;99.90;;;;;;5075407;28;20456;-84
2021/11/13 04:15:21;;;;;;;0.60;0.60;;;2.50;99.90;;;;;;5075412;28;20483;-84
2021/11/13 04:17:49;;;;;;;0.30;0.30;;;2.50;99.90;;;;;;5075408;28;20453;-84
2021/11/13 04:20:18;;;;;;;0.80;0.73;;;2.60;99.90;;;;;;5074995;28;20836;-84
2021/11/13 04:22:47;;;;;;;0.30;0.30;;;2.60;99.90;;;;;;5075008;28;20928;-84
2021/11/13 04:25:14;;;;;;;0.40;0.40;;;2.60;99.90;;;;;;5074993;28;20440;-84
2021/11/13 04:27:41;;;;;;;1.23;1.13;;;2.70;99.90;;;;;;5075202;28;20449;-84
2021/11/13 04:30:12;;;;;;;0.80;0.80;;;2.70;99.90;;;;;;5075191;28;20453;-84
2021/11/13 04:32:39;;;;;;;1.47;0.53;;;2.80;99.90;;;;;;5075125;28;20472;-84
2021/11/13 04:35:22;;;;;;;0.87;0.87;;;2.80;99.90;;;;;;5074925;28;20465;-84
2021/11/13 04:37:53;;;;;;;1.70;0.90;;;2.90;99.90;;;;;;5075028;28;20433;-84
2021/11/13 04:40:22;;;;;;;0.93;0.93;;;2.90;99.90;;;;;;5074961;28;20448;-84
2021/11/13 04:42:49;;;;;;;0.30;0.30;;;2.90;99.90;;;;;;5074816;28;20445;-83
2021/11/13 04:45:16;;;;;;;0.30;0.27;;;2.90;99.90;;;;;;5074546;28;20448;-84
2021/11/13 04:47:43;;;;;;;0.30;0.30;;;2.90;99.90;;;;;;5074778;28;20456;-83
2021/11/13 04:50:14;;;;;;;0.33;0.33;;;3.00;99.90;;;;;;5074686;28;20437;-84
2021/11/13 04:52:41;;;;;;;1.17;1.07;;;3.10;99.90;;;;;;5074471;28;20432;-84
2021/11/13 04:55:10;;;;;;;0.40;0.40;;;3.10;99.90;;;;;;5074335;28;20456;-84
2021/11/13 04:57:37;;;;;;;0.40;0.40;;;3.10;99.90;;;;;;5074582;28;20441;-83
2021/11/13 05:00:07;;;;;;;1.03;1.03;;;3.10;99.90;;;;;;5074247;28;20979;-84
2021/11/13 05:02:34;;;;;;;2.00;1.90;;;3.10;99.90;;;;;;5074565;28;20447;-84
2021/11/13 05:05:01;;;;;;;0.30;0.30;;;3.10;99.90;;;;;;5074079;28;20457;-84
2021/11/13 05:07:28;;;;;;;0.30;0.30;;;3.20;99.90;;;;;;5074331;28;20445;-84
2021/11/13 05:09:55;;;;;;;0.40;0.40;;;3.10;99.90;;;;;;5074302;28;20440;-84
2021/11/13 05:12:23;;;;;;;0.40;0.40;;;3.10;99.90;;;;;;5074247;28;20445;-84
2021/11/13 05:14:50;;;;;;;0.50;0.50;;;3.00;99.90;;;;;;5074156;28;20537;-84
2021/11/13 05:17:17;;;;;;;0.50;0.50;;;2.90;99.90;;;;;;5074949;28;20484;-83
2021/11/13 05:19:44;;;;;;;0.40;0.40;;;3.00;99.90;;;;;;5073970;28;20929;-84
2021/11/13 05:22:10;;;;;;;0.63;0.63;;;3.00;99.90;;;;;;5074078;28;20449;-84
2021/11/13 05:24:37;;;;;;;0.30;0.30;;;3.00;99.90;;;;;;5073578;28;20491;-84
2021/11/13 05:27:05;;;;;;;0.40;0.40;;;3.00;99.90;;;;;;5073713;28;20448;-84
2021/11/13 05:29:33;;;;;;;0.90;0.90;;;3.00;99.90;;;;;;5073975;28;20477;-83
2021/11/13 05:32:00;;;;;;;0.40;0.40;;;3.00;99.90;;;;;;5073871;28;20460;-84
2021/11/13 05:34:27;;;;;;;0.50;0.50;;;3.00;99.90;;;;;;5073853;28;20469;-83
2021/11/13 05:36:53;;;;;;;0.70;0.70;;;3.10;99.90;;;;;;5073739;28;20488;-83
2021/11/13 05:39:20;;;;;;;0.30;0.30;;;3.10;99.90;;;;;;5073483;28;20929;-84
2021/11/13 05:41:47;;;;;;;0.37;0.37;;;3.10;99.90;;;;;;5073762;28;20459;-83
2021/11/13 05:44:14;;;;;;;0.70;0.70;;;3.00;99.90;;;;;;5073579;28;20475;-84
2021/11/13 05:46:42;;;;;;;2.10;0.70;;;3.00;99.90;;;;;;5073348;28;20457;-84
2021/11/13 05:49:09;;;;;;;0.40;0.40;;;3.00;99.90;;;;;;5073730;28;20447;-84
2021/11/13 05:51:36;;;;;;;0.87;0.40;;;2.90;99.90;;;;;;5073614;28;20440;-83
2021/11/13 05:54:03;;;;;;;2.93;0.77;;;2.90;99.90;;;;;;5073229;28;20480;-84
2021/11/13 05:56:30;;;;;;;0.30;0.30;;;2.90;99.90;;;;;;5073203;28;20483;-84
2021/11/13 05:58:56;;;;;;;0.30;0.30;;;2.80;99.90;;;;;;5073529;28;20447;-83
2021/11/13 06:01:23;;;;;;;0.40;0.40;;;2.80;99.90;;;;;;5073525;28;20445;-83
2021/11/13 06:03:51;;;;;;;0.30;0.30;;;2.80;99.90;;;;;;5073378;28;20468;-83
2021/11/13 06:06:18;;;;;;;0.93;0.93;;;2.80;99.90;;;;;;5073083;28;20803;-84
2021/11/13 06:08:45;;;;;;;0.30;0.30;;;2.90;99.90;;;;;;5073427;28;20801;-83
2021/11/13 06:11:11;;;;;;;0.40;0.40;;;3.00;99.90;;;;;;5073082;28;20952;-83
2021/11/13 06:13:38;;;;;;;0.30;0.30;;;3.10;99.90;;;;;;5072972;28;20467;-83
2021/11/13 06:16:08;;;;;;;0.37;0.37;;;3.20;99.90;;;;;;5072976;28;20473;-83
2021/11/13 06:18:35;;;;;;;0.30;0.30;;;3.30;99.90;;;;;;5073184;28;20457;-83
2021/11/13 06:21:03;;;;;;;0.30;0.30;;;3.40;99.90;;;;;;5072979;28;20433;-83
2021/11/13 06:23:30;;;;;;;0.30;0.30;;;3.60;99.90;;;;;;5072602;28;21019;-82
2021/11/13 06:25:56;;;;;;;0.30;0.20;;;3.70;99.90;;;;;;5073135;28;20444;-81
2021/11/13 06:28:23;;;;;;;0.50;0.40;;;3.80;99.90;;;;;;5073108;28;20449;-81
2021/11/13 06:30:50;;;;;;;0.30;0.20;;;3.90;99.90;;;;;;5072878;28;20440;-81
2021/11/13 06:33:17;;;;;;;0.40;0.40;;;4.00;99.90;;;;;;5072853;28;20830;-81
2021/11/13 06:35:44;;;;;;;1.17;0.50;;;4.10;99.90;;;;;;5072832;28;20788;-81
2021/11/13 06:38:12;;;;;;;1.40;0.40;;;4.20;99.90;;;;;;5073140;28;20449;-81
2021/11/13 06:40:39;;;;;;;0.30;0.23;;;4.20;99.90;;;;;;5073106;28;20457;-81
2021/11/13 06:43:06;;;;;;;0.30;0.30;;;4.40;99.90;;;;;;5072966;28;20472;-83
2021/11/13 06:45:33;;;;;;;0.30;0.30;;;4.50;99.90;;;;;;5072733;28;20488;-84
2021/11/13 06:48:00;;;;;;;0.30;0.27;;;4.50;99.90;;;;;;5073796;28;20452;-84
2021/11/13 06:50:26;;;;;;;0.60;0.60;;;4.50;99.90;;;;;;5072788;28;20436;-84
2021/11/13 06:52:53;;;;;;;0.33;0.33;;;4.50;99.90;;;;;;5072944;28;20441;-84
2021/11/13 06:55:22;;;;;;;0.97;0.97;;;4.70;99.90;;;;;;5072945;28;20456;-84
2021/11/13 06:57:48;;;;;;;0.30;0.20;;;4.70;99.90;;;;;;5072829;28;20485;-84
2021/11/13 07:00:18;;;;;;;0.30;0.20;;;4.70;99.90;;;;;;5072932;28;20456;-84
2021/11/13 07:02:45;;;;;;;0.60;0.60;;;4.70;99.90;;;;;;5072510;28;20939;-84
2021/11/13 07:05:12;;;;;;;0.57;0.47;;;4.80;99.90;;;;;;5072608;28;20928;-84
2021/11/13 07:07:39;;;;;;;0.37;0.30;;;4.80;99.90;;;;;;5072554;28;20441;-85
2021/11/13 07:10:09;;;;;;;0.30;0.30;;;4.80;99.90;;;;;;5072877;28;20476;-84
2021/11/13 07:12:37;;;;;;;0.30;0.30;;;4.80;99.90;;;;;;5072726;28;20445;-84
2021/11/13 07:15:06;;;;;;;0.60;0.50;;;4.90;99.90;;;;;;5072726;28;20472;-84
2021/11/13 07:17:33;;;;;;;0.40;0.40;;;4.90;99.90;;;;;;5072632;28;20477;-84
2021/11/13 07:20:00;;;;;;;0.30;0.30;;;5.00;99.90;;;;;;5072755;28;20441;-84
2021/11/13 07:22:27;;;;;;;0.30;0.30;;;5.00;99.90;;;;;;5072450;28;20433;-84
2021/11/13 07:24:55;;;;;;;0.30;0.30;;;5.10;99.90;;;;;;5072287;28;20472;-84
2021/11/13 07:27:22;;;;;;;0.30;0.30;;;5.10;99.90;;;;;;5072845;28;20761;-84
2021/11/13 07:29:59;;;;;;;0.40;0.30;;;5.20;99.90;;;;;;5073392;28;20488;-91
2021/11/13 07:32:27;;;;;;;0.30;0.30;;;5.30;99.90;;;;;;5076713;28;20432;-91
2021/11/13 07:34:54;;;;;;;0.30;0.30;;;5.40;99.90;;;;;;5076918;28;20472;-91
2021/11/13 07:37:21;;;;;;;0.30;0.30;;;5.40;99.90;;;;;;5076437;28;20481;-88
2021/11/13 07:39:48;;;;;;;0.33;0.30;;;5.40;99.90;;;;;;5076833;28;20436;-87
2021/11/13 07:42:15;;;;;;;0.30;0.30;;;5.50;99.90;;;;;;5076597;28;20444;-87
2021/11/13 07:44:42;;;;;;;1.67;0.40;;;5.50;99.90;;;;;;5076579;28;20484;-88
2021/11/13 07:47:10;;;;;;;0.50;0.50;;;5.50;99.90;;;;;;5076585;28;20448;-87
2021/11/13 07:49:37;;;;;;;0.30;0.30;;;5.50;99.90;;;;;;5076028;28;20936;-87
2021/11/13 07:52:05;;;;;;;0.30;0.30;;;5.60;99.90;;;;;;5076138;28;20434;-84
2021/11/13 07:54:32;;;;;;;0.30;0.30;;;5.70;99.90;;;;;;5075629;28;20841;-84
2021/11/13 07:56:59;;;;;;;0.30;0.30;;;5.70;99.90;;;;;;5075874;28;20472;-83
2021/11/13 07:59:26;;;;;;;0.70;0.50;;;5.70;99.90;;;;;;5075762;28;20905;-84
2021/11/13 08:01:53;;;;;;;0.30;0.30;;;5.80;99.90;;;;;;5075542;28;20452;-84
2021/11/13 08:04:21;;;;;;;0.40;0.40;;;5.70;99.90;;;;;;5076271;28;20483;-91
2021/11/13 08:06:47;;;;;;;0.30;0.30;;;5.80;99.90;;;;;;5077030;28;20937;-90
2021/11/13 08:09:14;;;;;;;0.40;0.30;;;5.80;99.90;;;;;;5077131;28;20449;-91
2021/11/13 08:11:41;;;;;;;0.40;0.30;;;5.80;99.90;;;;;;5077039;28;20928;-91
2021/11/13 08:14:08;;;;;;;0.30;0.20;;;5.80;99.90;;;;;;5076798;28;20460;-92
2021/11/13 08:16:35;;;;;;;0.83;0.60;;;6.00;99.90;;;;;;5076711;28;20480;-91
2021/11/13 08:19:02;;;;;;;0.40;0.40;;;6.10;99.90;;;;;;5076447;28;20532;-93
2021/11/13 08:21:30;;;;;;;0.30;0.30;;;6.20;99.90;;;;;;5076680;28;20449;-93
2021/11/13 08:23:58;;;;;;;0.40;0.40;;;6.30;99.90;;;;;;5076123;28;20975;-93
2021/11/13 08:26:25;;;;;;;0.60;0.60;;;6.40;99.90;;;;;;5076199;28;20452;-93
2021/11/13 08:28:52;;;;;;;0.40;0.30;;;6.60;99.90;;;;;;5075367;28;20460;-83
2021/11/13 08:31:19;;;;;;;0.30;0.20;;;6.70;99.90;;;;;;5075256;28;20451;-83
2021/11/13 08:33:46;;;;;;;0.30;0.30;;;6.90;99.90;;;;;;5075085;28;20476;-83
2021/11/13 08:36:12;;;;;;;0.50;0.40;;;7.00;99.90;;;;;;5074830;28;20959;-83
2021/11/13 08:38:41;;;;;;;0.30;0.30;;;7.10;99.90;;;;;;5075024;28;20485;-83
2021/11/13 08:41:08;;;;;;;0.30;0.30;;;7.10;99.90;;;;;;5074981;28;20452;-83
2021/11/13 08:43:34;;;;;;;0.53;0.53;;;7.10;99.90;;;;;;5074582;28;21010;-83
2021/11/13 08:46:01;;;;;;;0.40;0.40;;;7.10;99.90;;;;;;5074958;28;20449;-83
2021/11/13 08:48:28;;;;;;;0.47;0.47;;;7.00;99.90;;;;;;5075241;28;20453;-90
2021/11/13 08:50:56;;;;;;;0.57;0.57;;;7.00;99.90;;;;;;5075830;28;20460;-90
2021/11/13 08:53:22;;;;;;;0.40;0.40;;;7.00;99.90;;;;;;5075781;28;20465;-90
2021/11/13 08:55:51;;;;;;;0.40;0.40;;;7.20;99.90;;;;;;5075744;28;20441;-90
2021/11/13 08:58:18;;;;;;;0.40;0.40;;;7.30;99.90;;;;;;5075689;28;20480;-90
2021/11/13 09:00:48;;;;;;;0.30;0.30;;;7.40;99.90;;;;;;5075985;28;20441;-93
2021/11/13 09:03:18;;;;;;;0.30;0.30;;;7.60;99.90;;;;;;5075413;28;20472;-92
2021/11/13 09:05:45;;;;;;;0.30;0.30;;;7.70;99.90;;;;;;5075841;28;20449;-92
2021/11/13 09:08:11;;;;;;;0.30;0.27;;;7.80;99.90;;;;;;5075520;28;20809;-83
2021/11/13 09:10:40;;;;;;;0.30;0.30;;;7.90;99.90;;;;;;5074494;28;20452;-83
2021/11/13 09:13:10;;;;;;;0.30;0.30;;;8.50;99.90;;;;;;5074107;28;20476;-83
2021/11/13 09:15:38;;;;;;;0.50;0.50;;;9.00;99.90;;;;;;5074077;28;20786;-82
2021/11/13 09:18:06;;;;;;;0.40;0.33;;;10.10;99.90;;;;;;5074238;28;20511;-83
2021/11/13 09:20:35;;;;;;;0.30;0.30;;;11.20;99.90;;;;;;5073931;28;20449;-83
2021/11/13 09:23:02;;;;;;;0.30;0.30;;;12.00;99.90;;;;;;5073547;28;20492;-84
2021/11/13 09:25:29;;;;;;;0.40;0.40;;;12.80;99.90;;;;;;5074182;28;20483;-85
2021/11/13 09:27:58;;;;;;;1.10;0.80;;;13.50;99.90;;;;;;5074156;28;20441;-85
2021/11/13 09:30:29;;;;;;;0.40;0.37;;;13.80;99.90;;;;;;5073798;28;20927;-85
2021/11/13 09:32:56;;;;;;;0.93;0.40;;;13.70;99.90;;;;;;5074061;28;20421;-85
2021/11/13 09:35:24;;;;;;;1.33;0.50;;;13.30;99.90;;;;;;5073713;28;20445;-85
2021/11/13 09:37:51;;;;;;;1.23;0.50;;;12.90;99.90;;;;;;5073900;28;20485;-85
2021/11/13 09:40:20;;;;;;;0.70;0.33;;;12.60;99.90;;;;;;5073981;28;20455;-84
2021/11/13 09:42:49;;;;;;;0.50;0.50;;;12.40;99.90;;;;;;5073767;28;20463;-85
2021/11/13 09:45:16;;;;;;;0.40;0.40;;;13.10;99.90;;;;;;5073898;28;20452;-84
2021/11/13 09:47:47;;;;;;;1.37;0.60;;;14.40;99.90;;;;;;5074278;28;20445;-92
2021/11/13 09:50:15;;;;;;;2.83;0.80;;;16.00;98.60;;;;;;5074853;28;20425;-90
2021/11/13 09:52:43;;;;;;;0.40;0.40;;;16.90;93.50;;;;;;5074768;28;20460;-91
2021/11/13 09:55:12;;;;;;;1.70;0.47;;;16.70;91.20;;;;;;5074363;28;20449;-91
2021/11/13 09:57:40;;;;;;;0.80;0.60;;;16.00;91.00;;;;;;5074401;28;20477;-92
2021/11/13 10:00:09;;;;;;;0.90;0.60;;;14.70;90.90;;;;;;5074757;28;20464;-92
2021/11/13 10:02:36;;;;;;;0.73;0.70;;;13.70;93.40;;;;;;5074712;28;20441;-92
2021/11/13 10:05:05;;;;;;;1.53;1.43;;;12.90;95.20;;;;;;5074315;28;20974;-92
2021/11/13 10:07:33;;;;;;;1.93;0.50;;;12.20;96.60;;;;;;5074698;28;20498;-92
2021/11/13 10:10:00;;;;;;;0.83;0.60;;;11.70;97.80;;;;;;5074611;28;20544;-92
2021/11/13 10:12:35;;;;;;;1.73;0.53;;;11.40;98.80;;;;;;5074560;28;20445;-90
2021/11/13 10:15:01;;;;;;;0.57;0.40;;;11.10;99.50;;;;;;5074163;28;20503;-90
2021/11/13 10:17:28;;;;;;;3.50;0.63;;;10.90;99.90;;;;;;5074521;28;20487;-90
2021/11/13 10:19:55;;;;;;;1.90;0.70;;;10.90;99.90;;;;;;5073674;28;20460;-85
2021/11/13 10:22:23;;;;;;;3.30;0.60;;;10.90;99.90;;;;;;5073359;28;20444;-84
2021/11/13 10:24:53;;;;;;;1.13;1.13;;;10.80;99.90;;;;;;5072881;28;20488;-84
2021/11/13 10:27:21;;;;;;;0.40;0.40;;;10.80;99.90;;;;;;5073349;28;20445;-84
2021/11/13 10:29:48;;;;;;;2.30;0.50;;;10.90;99.90;;;;;;5073229;28;20463;-84
2021/11/13 10:32:18;;;;;;;1.13;0.50;;;11.00;99.90;;;;;;5073319;28;20502;-84
2021/11/13 10:34:46;;;;;;;0.60;0.40;;;11.10;99.90;;;;;;5072800;28;20984;-85
2021/11/13 10:37:18;;;;;;;0.50;0.37;;;11.30;99.90;;;;;;5072845;28;20963;-84
2021/11/13 10:39:48;;;;;;;0.43;0.37;;;11.40;99.90;;;;;;5074038;28;20440;-85
2021/11/13 10:42:18;;;;;;;1.37;1.27;;;11.40;99.90;;;;;;5073119;28;20433;-85
2021/11/13 10:44:48;;;;;;;0.70;0.50;;;11.30;99.90;;;;;;5073075;28;20472;-85
2021/11/13 10:47:16;;;;;;;0.40;0.40;;;11.30;99.90;;;;;;5073118;28;20471;-85
2021/11/13 10:49:45;;;;;;;0.40;0.33;;;11.30;99.90;;;;;;5073169;28;20437;-85
2021/11/13 10:52:15;;;;;;;0.73;0.73;;;11.30;99.90;;;;;;5072764;28;20963;-85
2021/11/13 10:54:44;;;;;;;0.43;0.33;;;11.30;99.90;;;;;;5073005;28;20460;-85
2021/11/13 10:57:12;;;;;;;0.50;0.50;;;11.30;99.90;;;;;;5072629;28;20456;-85
2021/11/13 10:59:42;;;;;;;0.73;0.73;;;11.30;99.90;;;;;;5073035;28;20464;-85
2021/11/13 11:02:11;;;;;;;0.60;0.60;;;11.30;99.90;;;;;;5072972;28;20451;-84
2021/11/13 11:04:40;;;;;;;5.10;0.67;;;11.20;99.90;;;;;;5072574;28;20468;-84
2021/11/13 11:07:08;;;;;;;0.30;0.30;;;11.10;99.90;;;;;;5075484;28;20441;-85
2021/11/13 11:09:38;;;;;;;0.93;0.67;;;11.20;99.90;;;;;;5076769;28;20444;-84
2021/11/13 11:12:07;;;;;;;0.50;0.50;;;11.10;99.90;;;;;;5076724;28;20444;-84
2021/11/13 11:14:38;;;;;;;0.83;0.50;;;11.10;99.90;;;;;;5076560;28;20468;-84
2021/11/13 11:17:07;;;;;;;0.50;0.50;;;11.00;99.90;;;;;;5077394;28;20428;-85
2021/11/13 11:19:36;;;;;;;0.50;0.50;;;11.00;99.90;;;;;;5076535;28;20480;-85
2021/11/13 11:22:06;;;;;;;1.50;1.00;;;11.00;99.90;;;;;;5076579;28;20448;-85
2021/11/13 11:24:36;;;;;;;0.30;0.30;;;10.90;99.90;;;;;;5076152;28;20491;-84
2021/11/13 11:27:07;;;;;;;0.60;0.60;;;10.90;99.90;;;;;;5077306;28;20437;-84
2021/11/13 11:29:37;;;;;;;1.03;0.90;;;10.70;99.90;;;;;;5076181;28;20417;-85
2021/11/13 11:32:07;;;;;;;0.93;0.47;;;10.70;99.90;;;;;;5076200;28;21014;-84
2021/11/13 11:34:37;;;;;;;0.70;0.50;;;10.60;99.90;;;;;;5076363;28;20468;-85
2021/11/13 11:37:13;;;;;;;0.40;0.30;;;10.60;99.90;;;;;;5076347;28;20440;-85
2021/11/13 11:39:41;;;;;;;0.50;0.50;;;10.60;99.90;;;;;;5076204;28;20468;-85
2021/11/13 11:42:09;;;;;;;1.27;0.70;;;10.50;99.90;;;;;;5075956;28;20805;-85
2021/11/13 11:44:40;;;;;;;0.80;0.43;;;10.50;99.90;;;;;;5076109;28;20825;-85
2021/11/13 11:47:13;;;;;;;2.17;0.53;;;10.50;99.90;;;;;;5077323;28;20438;-93
2021/11/13 11:49:45;;;;;;;0.97;0.40;;;10.50;99.90;;;;;;5077325;28;20441;-94
2021/11/13 11:52:13;;;;;;;1.33;1.23;;;10.50;99.90;;;;;;5077211;28;20574;-94
2021/11/13 11:54:40;;;;;;;0.40;0.40;;;10.50;99.90;;;;;;5077117;28;20526;-94
2021/11/13 11:57:07;;;;;;;3.93;0.43;;;10.50;99.90;;;;;;5076853;28;20449;-93
2021/11/13 11:59:36;;;;;;;0.67;0.50;;;10.50;99.90;;;;;;5076967;28;20844;-94
2021/11/13 12:02:14;;;;;;;0.70;0.60;;;10.50;99.90;;;;;;5077063;28;20453;-94
2021/11/13 12:04:42;;;;;;;0.60;0.60;;;10.50;99.90;;;;;;5077167;28;20468;-93
2021/11/13 12:07:13;;;;;;;0.40;0.30;;;10.40;99.90;;;;;;5077145;28;20451;-93
2021/11/13 12:10:04;;;;;;;0.57;0.57;;;10.40;99.90;;;;;;5076680;28;20516;-94
2021/11/13 12:12:31;;;;;;;0.90;0.47;;;10.30;99.90;;;;;;5077083;28;20893;-92
2021/11/13 12:15:20;;;;;;;0.83;0.70;;;10.30;99.90;;;;;;5077000;28;20544;-91
2021/11/13 12:17:50;;;;;;;0.80;0.40;;;10.40;99.90;;;;;;5075281;28;20908;-82
2021/11/13 12:20:33;;;;;;;0.53;0.30;;;10.40;99.90;;;;;;5075201;28;20448;-82
2021/11/13 12:23:26;;;;;;;0.50;0.50;;;10.40;99.90;;;;;;5075308;28;20498;-82
2021/11/13 12:26:00;;;;;;;1.07;0.40;;;10.40;99.90;;;;;;5074894;28;20445;-84
2021/11/13 12:28:29;;;;;;;0.63;0.63;;;10.30;99.90;;;;;;5075031;28;20494;-84
2021/11/13 12:31:13;;;;;;;0.90;0.40;;;10.30;99.90;;;;;;5075287;28;20535;-85
2021/11/13 12:33:50;;;;;;;0.47;0.47;;;10.40;99.90;;;;;;5074902;28;20473;-84
2021/11/13 12:36:20;;;;;;;0.90;0.40;;;10.40;99.90;;;;;;5075229;28;20440;-84
2021/11/13 12:38:53;;;;;;;2.00;0.50;;;10.40;99.90;;;;;;5074918;28;20464;-84
2021/11/13 12:41:22;;;;;;;1.60;0.47;;;10.40;99.90;;;;;;5075153;28;20436;-85
2021/11/13 12:44:02;;;;;;;0.40;0.40;;;10.50;99.90;;;;;;5074932;28;20495;-85
2021/11/13 12:46:31;;;;;;;0.30;0.30;;;10.50;99.90;;;;;;5074961;28;20433;-84
2021/11/13 12:49:39;;;;;;;0.70;0.40;;;10.50;99.90;;;;;;5074910;28;20449;-85
2021/11/13 12:52:18;;;;;;;1.37;0.50;;;10.40;99.90;;;;;;5074587;28;20940;-84
2021/11/13 12:55:17;;;;;;;0.60;0.60;;;10.40;99.90;;;;;;5074477;28;20831;-85
2021/11/13 12:57:46;;;;;;;0.40;0.40;;;10.40;99.90;;;;;;5074376;28;20944;-84
2021/11/13 13:00:18;;;;;;;0.93;0.70;;;10.40;99.90;;;;;;5074670;28;20461;-83
2021/11/13 13:02:45;;;;;;;0.40;0.40;;;10.40;99.90;;;;;;5075378;28;20437;-83